Time;durP1;ratioP1;P1;durP2;ratioP2;P2;SDS_P1;SDS_P2;PMS_P1;PMS_P2;Temp;Humidity;BMP_temperature;BMP_pressure;BME280_temperature;BME280_humidity;BME280_pressure;Samples;Min_cycle;Max_cycle;Signal;HPM_P1;HPM_P2
2023/01/26 00:01:18;;;;;;;80.63;25.40;;;-2.00;99.90;;;-4.03;100.00;101628.97;5055176;28;20479;-71
2023/01/26 00:03:45;;;;;;;91.68;27.23;;;-2.10;99.90;;;-4.06;100.00;101631.84;5059076;28;20499;-72
2023/01/26 00:06:15;;;;;;;77.88;23.15;;;-2.10;99.90;;;-3.98;100.00;101634.91;5055193;28;20504;-72
2023/01/26 00:08:43;;;;;;;80.30;24.15;;;-2.00;99.90;;;-3.95;100.00;101631.16;5055003;28;20032;-72
2023/01/26 00:11:13;;;;;;;98.80;30.75;;;-2.00;99.90;;;-4.07;100.00;101627.47;5054391;28;20043;-72
2023/01/26 00:13:39;;;;;;;94.10;28.55;;;-2.10;99.90;;;-4.07;100.00;101619.47;5055274;28;20080;-72
2023/01/26 00:16:10;;;;;;;95.85;28.65;;;-2.00;99.90;;;-4.07;100.00;101624.81;5070728;28;20080;-72
2023/01/26 00:18:38;;;;;;;93.38;27.95;;;-2.10;99.90;;;-4.06;100.00;101622.06;5055424;28;20044;-72
2023/01/26 00:21:06;;;;;;;93.30;28.60;;;-2.10;99.90;;;-4.01;100.00;101629.75;5079684;28;20115;-72
2023/01/26 00:23:34;;;;;;;;;;;-2.10;99.90;;;-3.98;100.00;101629.56;5055524;28;20032;-72
2023/01/26 00:26:00;;;;;;;94.22;26.42;;;-2.10;99.90;;;-3.98;100.00;101613.56;5086993;28;20003;-72
2023/01/26 00:28:27;;;;;;;89.30;25.70;;;-2.00;99.90;;;-3.87;100.00;101620.84;5066461;28;20036;-72
2023/01/26 00:31:03;;;;;;;90.00;28.38;;;-2.00;99.90;;;-3.86;100.00;101617.22;5060204;28;20056;-71
2023/01/26 00:33:29;;;;;;;96.93;28.08;;;-2.00;99.90;;;-3.94;100.00;101606.22;5056415;28;20193;-71
2023/01/26 00:35:55;;;;;;;93.75;27.45;;;-2.00;99.90;;;-3.94;100.00;101612.41;5052978;28;20032;-72
2023/01/26 00:38:20;;;;;;;92.50;27.20;;;-2.00;99.90;;;-3.92;100.00;101612.31;5054133;28;20499;-72
2023/01/26 00:40:46;;;;;;;102.50;30.88;;;-2.00;99.90;;;-3.95;100.00;101602.72;5076262;28;20504;-72
2023/01/26 00:43:12;;;;;;;97.90;29.83;;;-2.00;99.90;;;-3.99;100.00;101595.84;5067656;28;20040;-72
2023/01/26 00:45:38;;;;;;;105.07;32.05;;;-2.00;99.90;;;-3.94;100.00;101595.56;5053783;28;20033;-72
2023/01/26 00:48:05;;;;;;;105.90;30.75;;;-2.00;99.90;;;-3.98;100.00;101594.91;5053934;28;20041;-72
2023/01/26 00:50:31;;;;;;;90.63;30.00;;;-2.00;99.90;;;-3.88;100.00;101597.81;5064663;28;20074;-72
2023/01/26 00:52:56;;;;;;;96.65;28.83;;;-2.00;99.90;;;-3.91;100.00;101592.69;5062434;28;20449;-72
2023/01/26 00:55:30;;;;;;;100.60;30.25;;;-2.00;99.90;;;-3.95;100.00;101584.03;5051750;28;20111;-73
2023/01/26 00:58:00;;;;;;;95.43;28.33;;;-2.00;99.90;;;-3.90;100.00;101579.25;5052754;28;20083;-72
2023/01/26 01:00:29;;;;;;;88.55;27.42;;;-2.00;99.90;;;-3.87;100.00;101572.03;5064309;28;20553;-72
2023/01/26 01:02:57;;;;;;;92.95;27.52;;;-2.00;99.90;;;-3.79;100.00;101578.56;5069497;28;20506;-73
2023/01/26 01:05:26;;;;;;;84.05;26.13;;;-1.90;99.90;;;-3.89;100.00;101572.09;5053351;28;20033;-73
2023/01/26 01:07:52;;;;;;;85.90;25.33;;;-2.00;99.90;;;-3.86;100.00;101569.22;5066133;28;20037;-73
2023/01/26 01:10:18;;;;;;;81.47;25.10;;;-2.00;99.90;;;-3.81;100.00;101563.63;5066981;28;20029;-72
2023/01/26 01:12:45;;;;;;;78.63;23.92;;;-1.90;99.90;;;-3.85;100.00;101564.78;5053613;28;20043;-73
2023/01/26 01:15:11;;;;;;;86.97;24.52;;;-1.90;99.90;;;-3.81;100.00;101566.28;5058973;28;20439;-73
2023/01/26 01:17:38;;;;;;;85.28;26.33;;;-1.90;99.90;;;-3.89;100.00;101564.09;5056973;28;20040;-73
2023/01/26 01:20:07;;;;;;;81.80;26.23;;;-1.90;99.90;;;-3.85;100.00;101562.09;5055466;28;20033;-73
2023/01/26 01:22:34;;;;;;;79.80;25.73;;;-2.00;99.90;;;-3.76;100.00;101569.50;5063654;28;20109;-73
2023/01/26 01:25:00;;;;;;;81.88;24.02;;;-1.90;99.90;;;-3.81;100.00;101561.81;5085702;28;20041;-73
2023/01/26 01:27:26;;;;;;;80.88;24.27;;;-1.90;99.90;;;-3.87;100.00;101550.69;5044356;28;20056;-73
2023/01/26 01:29:52;;;;;;;79.40;25.20;;;-1.90;99.90;;;-3.84;100.00;101566.47;5085609;28;20048;-73
2023/01/26 01:32:19;;;;;;;82.72;25.88;;;-1.90;99.90;;;-3.80;100.00;101568.00;5062040;28;20032;-73
2023/01/26 01:34:49;;;;;;;91.43;27.40;;;-1.90;99.90;;;-3.83;100.00;101558.41;5060662;28;20029;-73
2023/01/26 01:37:16;;;;;;;87.28;26.83;;;-1.90;99.90;;;-3.82;100.00;101561.91;5052578;28;20289;-73
2023/01/26 01:39:42;;;;;;;77.55;23.90;;;-1.90;99.90;;;-3.73;100.00;101552.44;5052514;28;20029;-73
2023/01/26 01:42:08;;;;;;;86.50;26.00;;;-1.90;99.90;;;-3.76;100.00;101554.38;5053030;28;20140;-73
2023/01/26 01:44:36;;;;;;;84.35;25.63;;;-1.90;99.90;;;-3.88;100.00;101525.81;5053250;28;20375;-73
2023/01/26 01:47:04;;;;;;;;;;;-1.90;99.90;;;-3.71;100.00;101546.06;5051845;28;20052;-73
2023/01/26 01:49:48;;;;;;;81.40;23.58;;;-1.90;99.90;;;-3.69;100.00;101537.94;5051723;28;19917;-73
2023/01/26 01:52:34;;;;;;;80.35;24.63;;;-1.80;99.90;;;-3.69;100.00;101533.47;5051756;28;20057;-73
2023/01/26 01:55:08;;;;;;;76.75;21.73;;;-1.80;99.90;;;-3.66;100.00;101532.41;5052428;28;20451;-73
2023/01/26 01:57:52;;;;;;;76.80;22.77;;;-1.80;99.90;;;-3.61;100.00;101541.81;5052871;28;20036;-73
2023/01/26 02:00:22;;;;;;;76.13;23.13;;;-1.80;99.90;;;-3.64;100.00;101535.81;5063297;28;20578;-73
2023/01/26 02:03:13;;;;;;;68.93;23.15;;;-1.80;99.90;;;-3.65;100.00;101528.78;5051161;28;20039;-73
2023/01/26 02:06:11;;;;;;;74.63;22.83;;;-1.80;99.90;;;-3.71;100.00;101526.53;5051129;28;20036;-73
2023/01/26 02:08:47;;;;;;;65.25;19.92;;;-1.80;99.90;;;-3.69;100.00;101512.13;5063784;28;20246;-73
2023/01/26 02:11:25;;;;;;;64.68;20.23;;;-1.80;99.90;;;-3.70;100.00;101513.09;5057065;28;20044;-73
2023/01/26 02:13:53;;;;;;;62.22;21.02;;;-1.80;99.90;;;-3.68;100.00;101513.84;5053287;28;20047;-73
2023/01/26 02:16:19;;;;;;;72.18;21.45;;;-1.80;99.90;;;-3.65;100.00;101518.09;5069455;28;20037;-73
2023/01/26 02:18:45;;;;;;;64.53;20.92;;;-1.80;99.90;;;-3.63;100.00;101516.19;5084874;28;20392;-72
2023/01/26 02:21:21;;;;;;;66.28;20.15;;;-1.70;99.90;;;-3.65;100.00;101502.09;5070505;28;20437;-73
2023/01/26 02:24:05;;;;;;;65.97;20.48;;;-1.80;99.90;;;-3.60;100.00;101510.66;5070930;28;20025;-73
2023/01/26 02:26:36;;;;;;;59.65;20.25;;;-1.70;99.90;;;-3.65;100.00;101510.97;5059002;28;20531;-73
2023/01/26 02:29:08;;;;;;;73.75;22.38;;;-1.70;99.90;;;-3.66;100.00;101501.25;5049811;28;20037;-73
2023/01/26 02:31:40;;;;;;;73.45;22.42;;;-1.80;99.90;;;-3.61;100.00;101499.13;5058817;28;20032;-73
2023/01/26 02:34:06;;;;;;;71.68;21.85;;;-1.70;99.90;;;-3.56;100.00;101495.28;5050758;28;20049;-73
2023/01/26 02:36:33;;;;;;;72.38;23.50;;;-1.70;99.90;;;-3.59;100.00;101495.50;5058582;28;20044;-72
2023/01/26 02:39:28;;;;;;;78.88;22.48;;;-1.70;99.90;;;-3.64;100.00;101498.47;5052579;28;20033;-73
2023/01/26 02:44:42;;;;;;;68.72;21.75;;;-1.70;99.90;;;-3.59;100.00;101490.16;5061692;28;20069;-73
2023/01/26 02:47:15;;;;;;;74.43;22.52;;;-1.70;99.90;;;-3.57;100.00;101498.94;5051226;28;20124;-73
2023/01/26 02:49:47;;;;;;;76.10;21.40;;;-1.70;99.90;;;-3.68;100.00;101480.97;5058671;28;20095;-72
2023/01/26 02:52:24;;;;;;;82.10;24.48;;;-1.70;99.90;;;-3.62;100.00;101499.22;5054581;28;20049;-72
2023/01/26 02:57:44;;;;;;;82.90;23.30;;;-1.70;99.90;;;-3.55;100.00;101491.66;5066706;28;20017;-72
2023/01/26 03:00:19;;;;;;;76.93;23.17;;;-1.70;99.90;;;-3.48;100.00;101496.50;5056310;28;20476;-73
2023/01/26 03:02:47;;;;;;;97.05;25.67;;;-1.70;99.90;;;-3.56;100.00;101489.97;5059416;28;20029;-72
2023/01/26 03:05:13;;;;;;;96.88;25.40;;;-1.70;99.90;;;-3.54;100.00;101493.38;5062812;28;20487;-73
2023/01/26 03:07:40;;;;;;;95.43;26.60;;;-1.70;99.90;;;-3.65;100.00;101484.31;5066272;28;20050;-73
2023/01/26 03:10:07;;;;;;;87.22;26.33;;;-1.70;99.90;;;-3.58;100.00;101486.53;5066748;28;20510;-72
2023/01/26 03:12:32;;;;;;;96.68;26.40;;;-1.70;99.90;;;-3.61;100.00;101488.47;5056450;28;20094;-73
2023/01/26 03:17:43;;;;;;;92.47;27.08;;;-1.70;99.90;;;-3.60;100.00;101483.97;5063002;28;20108;-73
2023/01/26 03:28:26;;;;;;;100.28;27.17;;;-1.70;99.90;;;-3.55;100.00;101497.88;5062787;28;20078;-74
2023/01/26 03:30:56;;;;;;;96.32;26.42;;;-1.70;99.90;;;-3.53;100.00;101492.41;5058724;28;20028;-73
2023/01/26 03:33:23;;;;;;;113.00;27.25;;;-1.70;99.90;;;-3.54;100.00;101483.56;5067256;28;20111;-73
2023/01/26 03:35:53;;;;;;;93.05;26.63;;;-1.70;99.90;;;-3.52;100.00;101491.47;5054446;28;20029;-73
2023/01/26 03:38:20;;;;;;;97.70;26.50;;;-1.70;99.90;;;-3.51;100.00;101490.50;5059115;28;20483;-73
2023/01/26 03:57:19;;;;;;;90.15;24.55;;;-1.50;99.90;;;-3.42;100.00;101470.34;5053085;28;20041;-73
2023/01/26 03:59:47;;;;;;;99.27;26.50;;;-1.50;99.90;;;-3.35;100.00;101482.31;5060843;28;20025;-74
2023/01/26 04:10:36;;;;;;;98.72;27.13;;;-1.40;99.90;;;-3.32;100.00;101464.28;5075575;28;20041;-71
2023/01/26 04:21:27;;;;;;;93.28;25.98;;;-1.50;99.90;;;-3.28;100.00;101462.25;5053705;28;20472;-72
2023/01/26 04:23:56;;;;;;;80.90;23.73;;;-1.40;99.90;;;-3.35;100.00;101445.81;5053552;28;20036;-72
2023/01/26 04:26:24;;;;;;;99.10;25.55;;;-1.40;99.90;;;-3.27;100.00;101452.41;5053132;28;20040;-73
2023/01/26 04:28:51;;;;;;;91.68;25.20;;;-1.40;99.90;;;-3.29;100.00;101439.19;5064547;28;20123;-73
2023/01/26 04:31:17;;;;;;;87.85;24.33;;;-1.40;99.90;;;-3.24;100.00;101441.53;5047247;28;20032;-72
2023/01/26 04:33:45;;;;;;;93.00;25.30;;;-1.40;99.90;;;-3.23;100.00;101444.09;5052249;28;20052;-73
2023/01/26 04:36:11;;;;;;;86.22;25.00;;;-1.40;99.90;;;-3.19;100.00;101442.06;5058017;28;20029;-73
2023/01/26 04:38:41;;;;;;;81.18;23.90;;;-1.30;99.90;;;-3.19;100.00;101434.91;5053257;28;20048;-71
2023/01/26 04:41:07;;;;;;;86.07;23.95;;;-1.30;99.90;;;-3.16;100.00;101433.00;5053139;28;20033;-72
2023/01/26 04:43:39;;;;;;;102.55;26.50;;;-1.30;99.90;;;-3.14;100.00;101431.94;5070469;28;20033;-72
2023/01/26 04:46:07;;;;;;;88.40;23.55;;;-1.30;99.90;;;-3.13;100.00;101430.97;5054169;28;20040;-71
2023/01/26 04:48:35;;;;;;;86.30;23.55;;;-1.30;99.90;;;-3.12;100.00;101438.00;5075031;28;20041;-72
2023/01/26 04:51:06;;;;;;;89.93;24.95;;;-1.30;99.90;;;-3.12;100.00;101427.34;5076622;28;20025;-72
2023/01/26 04:53:33;;;;;;;87.10;26.00;;;-1.30;99.90;;;-3.11;100.00;101428.16;5085555;28;20041;-72
2023/01/26 04:55:59;;;;;;;87.22;25.38;;;-1.30;99.90;;;-3.09;100.00;101427.13;5071005;28;20044;-72
2023/01/26 04:58:25;;;;;;;86.88;24.13;;;-1.30;99.90;;;-3.14;100.00;101429.25;5070263;28;20033;-72
2023/01/26 05:00:57;;;;;;;87.30;25.05;;;-1.30;99.90;;;-3.12;100.00;101424.66;5065234;28;20037;-71
2023/01/26 05:03:25;;;;;;;93.68;24.88;;;-1.30;99.90;;;-3.12;100.00;101426.47;5053740;28;20037;-73
2023/01/26 05:05:54;;;;;;;86.65;23.85;;;-1.30;99.90;;;-3.11;100.00;101426.38;5052536;28;20039;-72
2023/01/26 05:08:22;;;;;;;90.43;25.67;;;-1.30;99.90;;;-3.16;100.00;101417.84;5085347;28;20171;-72
2023/01/26 05:10:48;;;;;;;86.32;25.42;;;-1.20;99.90;;;-3.12;100.00;101419.31;5058110;28;20028;-72
2023/01/26 05:13:38;;;;;;;86.38;23.60;;;-1.30;99.90;;;-3.13;100.00;101419.41;5053901;28;20033;-72
2023/01/26 05:16:14;;;;;;;90.95;24.15;;;-1.20;99.90;;;-3.11;100.00;101422.84;5067563;28;20036;-72
2023/01/26 05:18:59;;;;;;;86.07;23.40;;;-1.30;99.90;;;-3.08;100.00;101422.59;5059511;28;20403;-73
2023/01/26 05:21:45;;;;;;;89.82;24.33;;;-1.20;99.90;;;-3.08;100.00;101418.13;5054277;28;20409;-73
2023/01/26 05:24:12;;;;;;;87.65;23.98;;;-1.20;99.90;;;-3.10;100.00;101422.72;5053567;28;20115;-73
2023/01/26 05:27:19;;;;;;;100.50;25.50;;;-1.20;99.90;;;-3.14;100.00;101409.69;5053791;28;20044;-72
2023/01/26 05:29:37;;;;;;;93.05;25.95;;;-1.30;99.90;;;-3.03;100.00;101413.31;5052397;28;20052;-73
2023/01/26 05:32:03;;;;;;;93.75;26.48;;;-1.20;99.90;;;-3.00;100.00;101414.94;5052635;28;20049;-73
2023/01/26 05:34:30;;;;;;;98.03;25.88;;;-1.20;99.90;;;-2.99;100.00;101429.13;5046716;28;20032;-72
2023/01/26 05:36:56;;;;;;;101.22;26.65;;;-1.20;99.90;;;-3.01;100.00;101436.38;5051028;28;20036;-72
2023/01/26 05:39:23;;;;;;;105.22;26.55;;;-1.20;99.90;;;-3.04;100.00;101427.63;5061717;28;20048;-72
2023/01/26 05:41:49;;;;;;;98.65;26.45;;;-1.20;99.90;;;-3.00;100.00;101419.41;5054934;28;20032;-72
2023/01/26 05:44:33;;;;;;;103.65;24.85;;;-1.20;99.90;;;-3.01;100.00;101413.22;5053610;28;20063;-72
2023/01/26 05:47:06;;;;;;;96.10;23.30;;;-1.10;99.90;;;-3.03;100.00;101417.81;5057484;28;20029;-73
2023/01/26 05:49:32;;;;;;;96.90;26.35;;;-1.20;99.90;;;-2.98;100.00;101423.69;5053947;28;20090;-73
2023/01/26 05:51:58;;;;;;;94.43;26.23;;;-1.10;99.90;;;-3.01;100.00;101426.56;5055931;28;20052;-72
2023/01/26 05:54:24;;;;;;;100.10;25.15;;;-1.20;99.90;;;-3.02;100.00;101443.56;5040760;28;20036;-72
2023/01/26 05:56:52;;;;;;;109.00;25.58;;;-1.20;99.90;;;-2.98;100.00;101441.50;5056048;28;20028;-73
2023/01/26 05:59:18;;;;;;;;;;;-1.10;99.90;;;-2.94;100.00;101438.53;5061623;28;20036;-72
2023/01/26 06:01:45;;;;;;;96.05;24.25;;;-1.10;99.90;;;-2.92;100.00;101441.06;5085150;28;19916;-72
2023/01/26 06:04:11;;;;;;;110.68;28.00;;;-1.10;99.90;;;-2.92;100.00;101435.72;5056009;28;20391;-72
2023/01/26 06:06:43;;;;;;;101.25;27.77;;;-1.10;99.90;;;-2.94;100.00;101427.84;5069830;28;20033;-72
2023/01/26 06:09:20;;;;;;;97.63;26.92;;;-1.10;99.90;;;-3.08;100.00;101404.78;5052218;28;20393;-71
2023/01/26 06:12:03;;;;;;;100.85;27.73;;;-1.10;99.90;;;-2.93;100.00;101423.34;5068276;28;20032;-71
2023/01/26 06:14:41;;;;;;;96.93;25.67;;;-1.10;99.90;;;-2.89;100.00;101424.84;5085291;28;20131;-72
2023/01/26 06:17:07;;;;;;;99.13;24.65;;;-1.10;99.90;;;-2.92;100.00;101419.69;5064184;28;20123;-71
2023/01/26 06:19:34;;;;;;;100.72;27.20;;;-1.10;99.90;;;-2.90;100.00;101417.81;5058147;28;20037;-72
2023/01/26 06:22:01;;;;;;;;;;;-1.00;99.90;;;-2.89;100.00;101433.69;5056279;28;20571;-71
2023/01/26 06:24:28;;;;;;;92.38;24.60;;;-1.00;99.90;;;-2.87;100.00;101427.41;5071587;28;19916;-72
2023/01/26 06:26:54;;;;;;;104.03;26.85;;;-1.00;99.90;;;-2.90;100.00;101423.16;5055838;28;20033;-73
2023/01/26 06:29:20;;;;;;;113.38;28.05;;;-1.00;99.90;;;-2.85;100.00;101425.47;5075792;28;20050;-71
2023/01/26 06:31:46;;;;;;;106.45;27.63;;;-1.00;99.90;;;-2.86;100.00;101429.09;5057322;28;20047;-72
2023/01/26 06:34:12;;;;;;;98.72;27.05;;;-1.00;99.90;;;-2.95;100.00;101411.91;5055173;28;20039;-71
2023/01/26 06:36:41;;;;;;;100.72;26.15;;;-1.00;99.90;;;-2.85;100.00;101426.34;5058074;28;20067;-71
2023/01/26 06:39:11;;;;;;;94.18;24.83;;;-1.00;99.90;;;-2.83;100.00;101435.09;5074654;28;20480;-71
2023/01/26 06:41:38;;;;;;;101.03;26.33;;;-1.00;99.90;;;-2.80;100.00;101437.53;5057693;28;20033;-71
2023/01/26 06:44:05;;;;;;;94.80;24.92;;;-1.00;99.90;;;-2.82;100.00;101430.59;5041035;28;20032;-73
2023/01/26 06:46:31;;;;;;;89.07;24.98;;;-1.00;99.90;;;-2.82;100.00;101442.13;5059479;28;20029;-72
2023/01/26 06:49:01;;;;;;;97.07;25.75;;;-1.00;99.90;;;-2.83;100.00;101434.22;5062836;28;20025;-72
2023/01/26 06:51:47;;;;;;;94.65;25.90;;;-0.90;99.90;;;-2.77;100.00;101441.81;5054992;28;20033;-72
2023/01/26 06:54:14;;;;;;;104.68;25.05;;;-0.90;99.90;;;-2.75;100.00;101435.38;5059692;28;20393;-72
2023/01/26 06:57:00;;;;;;;96.47;24.92;;;-0.90;99.90;;;-2.70;100.00;101429.72;5051120;28;20096;-72
2023/01/26 07:00:02;;;;;;;83.45;24.85;;;-0.90;99.90;;;-2.75;100.00;101438.06;5041571;28;20045;-72
2023/01/26 07:02:33;;;;;;;89.43;25.40;;;-0.90;99.90;;;-2.75;100.00;101434.53;5052616;28;20044;-72
2023/01/26 07:04:59;;;;;;;85.85;24.13;;;-0.90;99.90;;;-2.77;100.00;101434.63;5051375;28;20045;-72
2023/01/26 07:07:25;;;;;;;88.68;24.75;;;-0.90;99.90;;;-2.74;100.00;101436.25;5062061;28;20045;-73
2023/01/26 07:09:51;;;;;;;92.18;24.33;;;-0.90;99.90;;;-2.73;100.00;101432.63;5049244;28;20045;-72
2023/01/26 07:12:16;;;;;;;85.15;24.15;;;-0.90;99.90;;;-2.73;100.00;101429.06;5049882;28;20124;-72
2023/01/26 07:14:42;;;;;;;83.95;24.70;;;-0.90;99.90;;;-2.72;100.00;101436.13;5049892;28;20095;-73
2023/01/26 07:17:08;;;;;;;77.93;24.20;;;-0.90;99.90;;;-2.72;100.00;101426.31;5050264;28;20033;-73
2023/01/26 07:19:33;;;;;;;83.28;24.20;;;-0.90;99.90;;;-2.73;100.00;101431.75;5049970;28;20380;-74
2023/01/26 07:22:00;;;;;;;75.10;22.85;;;-0.90;99.90;;;-2.67;100.00;101439.31;5061900;28;20036;-76
2023/01/26 07:24:27;;;;;;;76.45;22.83;;;-0.80;99.90;;;-2.68;100.00;101448.28;5063163;28;20060;-74
2023/01/26 07:26:52;;;;;;;74.82;22.58;;;-0.80;99.90;;;-2.65;100.00;101448.09;5060635;28;20373;-74
2023/01/26 07:29:18;;;;;;;81.88;23.83;;;-0.80;99.90;;;-2.68;100.00;101446.50;5055279;28;20043;-74
2023/01/26 07:31:44;;;;;;;74.38;23.23;;;-0.80;99.90;;;-2.62;100.00;101442.53;5052088;28;20048;-74
2023/01/26 07:34:11;;;;;;;69.18;22.30;;;-0.80;99.90;;;-2.61;100.00;101444.22;5050620;28;20443;-74
2023/01/26 07:36:36;;;;;;;76.63;24.92;;;-0.80;99.90;;;-2.62;100.00;101442.53;5052366;28;20040;-74
2023/01/26 07:39:03;;;;;;;79.43;23.70;;;-0.80;99.90;;;-2.60;100.00;101440.59;5052095;28;20048;-74
2023/01/26 07:41:29;;;;;;;79.20;23.58;;;-0.80;99.90;;;-2.61;100.00;101431.72;5051772;28;20033;-75
2023/01/26 07:43:56;;;;;;;78.40;23.63;;;-0.70;99.90;;;-2.56;100.00;101435.84;5056346;28;20455;-74
2023/01/26 07:46:22;;;;;;;78.70;23.90;;;-0.70;99.90;;;-2.48;100.00;101445.03;5050811;28;20033;-74
2023/01/26 07:48:48;;;;;;;77.57;23.25;;;-0.60;99.90;;;-2.50;100.00;101446.13;5054681;28;20046;-74
2023/01/26 07:51:13;;;;;;;82.65;25.00;;;-0.60;99.90;;;-2.46;100.00;101447.59;5067120;28;20040;-73
2023/01/26 07:53:42;;;;;;;74.97;23.95;;;-0.60;99.90;;;-2.38;100.00;101444.38;5051061;28;20037;-73
2023/01/26 07:56:14;;;;;;;82.03;27.13;;;-0.50;99.90;;;-2.34;100.00;101446.69;5059605;28;20072;-72
2023/01/26 07:58:40;;;;;;;78.63;25.48;;;-0.50;99.90;;;-2.33;100.00;101450.25;5057327;28;20507;-72
2023/01/26 08:01:13;;;;;;;82.85;26.13;;;-0.50;99.90;;;-2.31;100.00;101449.13;5060143;28;20097;-73
2023/01/26 08:03:40;;;;;;;89.70;26.35;;;-0.50;99.90;;;-2.32;100.00;101465.31;5058644;28;20036;-71
2023/01/26 08:06:07;;;;;;;73.03;24.88;;;-0.50;99.90;;;-2.23;100.00;101453.09;5061777;28;20434;-73
2023/01/26 08:08:34;;;;;;;82.07;24.38;;;-0.40;99.90;;;-2.17;100.00;101448.13;5054126;28;20037;-72
2023/01/26 08:11:01;;;;;;;76.80;25.17;;;-0.30;99.90;;;-2.07;100.00;101453.63;5061530;28;20545;-72
2023/01/26 08:13:29;;;;;;;79.80;25.27;;;-0.20;99.90;;;-2.04;100.00;101464.09;5054576;28;20033;-72
2023/01/26 08:16:04;;;;;;;78.20;24.00;;;-0.20;99.90;;;-2.03;100.00;101463.13;5054780;28;20032;-72
2023/01/26 08:18:30;;;;;;;74.65;22.45;;;-0.30;99.90;;;-1.96;100.00;101463.53;5053801;28;20087;-72
2023/01/26 08:20:57;;;;;;;71.35;22.33;;;-0.20;99.90;;;-1.91;100.00;101474.75;5059198;28;20372;-72
2023/01/26 08:23:23;;;;;;;67.25;23.05;;;-0.10;99.90;;;-1.85;100.00;101468.09;5054806;28;20091;-72
2023/01/26 08:25:49;;;;;;;66.68;21.58;;;-0.10;99.90;;;-1.77;100.00;101468.34;5053940;28;20400;-72
2023/01/26 08:28:14;;;;;;;68.93;22.98;;;0.00;99.90;;;-1.79;100.00;101466.78;5058520;28;20148;-72
2023/01/26 08:30:40;;;;;;;71.78;22.52;;;0.00;99.90;;;-1.77;100.00;101479.06;5057417;28;20039;-72
2023/01/26 08:33:06;;;;;;;67.85;22.65;;;0.00;99.90;;;-1.75;100.00;101479.78;5056192;28;20149;-72
2023/01/26 08:35:33;;;;;;;67.60;22.00;;;0.00;99.90;;;-1.75;100.00;101473.59;5054339;28;20029;-75
2023/01/26 08:37:59;;;;;;;58.35;20.88;;;0.10;99.90;;;-1.79;100.00;101472.97;5063544;28;20033;-72
2023/01/26 08:40:25;;;;;;;56.83;20.42;;;0.00;99.90;;;-1.79;100.00;101478.31;5053103;28;20036;-72
2023/01/26 08:42:51;;;;;;;68.07;23.00;;;0.00;99.90;;;-1.77;100.00;101473.69;5053868;28;20041;-72
2023/01/26 08:45:17;;;;;;;61.38;21.73;;;0.10;99.90;;;-1.75;100.00;101484.31;5054387;28;20052;-72
2023/01/26 08:47:44;;;;;;;63.80;23.17;;;0.10;99.90;;;-1.70;100.00;101479.44;5054608;28;20042;-73
2023/01/26 08:50:10;;;;;;;59.30;20.80;;;0.10;99.90;;;-1.68;100.00;101482.88;5057337;28;20391;-73
2023/01/26 08:52:36;;;;;;;59.22;22.02;;;0.20;99.90;;;-1.69;100.00;101483.84;5054811;28;20480;-72
2023/01/26 08:55:03;;;;;;;65.25;21.90;;;0.20;99.90;;;-1.68;100.00;101488.22;5054261;28;20036;-72
2023/01/26 08:57:29;;;;;;;69.57;24.13;;;0.20;99.90;;;-1.66;100.00;101485.44;5054274;28;20041;-72
2023/01/26 08:59:55;;;;;;;72.13;23.85;;;0.20;99.90;;;-1.66;100.00;101488.94;5053479;28;20388;-73
2023/01/26 09:02:20;;;;;;;70.38;22.25;;;0.20;99.90;;;-1.73;100.00;101483.19;5056937;28;20036;-73
2023/01/26 09:04:46;;;;;;;65.07;23.00;;;0.20;99.90;;;-1.68;100.00;101482.88;5054423;28;20487;-73
2023/01/26 09:07:12;;;;;;;64.22;21.92;;;0.20;99.90;;;-1.61;100.00;101486.78;5053933;28;20047;-71
2023/01/26 09:09:37;;;;;;;67.72;23.90;;;0.20;99.90;;;-1.62;100.00;101487.75;5054244;28;20078;-73
2023/01/26 09:12:04;;;;;;;64.10;23.55;;;0.20;99.90;;;-1.64;100.00;101478.97;5053609;28;20044;-73
2023/01/26 09:14:29;;;;;;;60.92;21.85;;;0.20;99.90;;;-1.66;100.00;101486.28;5053848;28;20040;-71
2023/01/26 09:16:55;;;;;;;65.40;23.50;;;0.20;99.90;;;-1.62;100.00;101482.41;5085725;28;20041;-72
2023/01/26 09:19:21;;;;;;;65.78;22.95;;;0.20;99.90;;;-1.63;100.00;101482.53;5053546;28;20040;-72
2023/01/26 09:21:51;;;;;;;75.85;26.10;;;0.20;99.90;;;-1.65;100.00;101471.94;5053456;28;20032;-72
2023/01/26 09:24:16;;;;;;;71.80;25.35;;;0.20;99.90;;;-1.66;100.00;101477.41;5053376;28;20373;-72
2023/01/26 09:26:42;;;;;;;63.70;24.42;;;0.20;99.90;;;-1.66;100.00;101478.25;5053241;28;20032;-71
2023/01/26 09:29:08;;;;;;;64.38;24.85;;;0.20;99.90;;;-1.66;100.00;101480.09;5074745;28;20045;-71
2023/01/26 09:31:34;;;;;;;70.93;25.25;;;0.20;99.90;;;-1.68;100.00;101476.69;5053487;28;20993;-71
2023/01/26 09:33:59;;;;;;;66.40;24.50;;;0.20;99.90;;;-1.77;100.00;101486.25;5053080;28;20049;-72
2023/01/26 09:36:25;;;;;;;68.93;24.90;;;0.10;99.90;;;-1.75;100.00;101484.31;5051954;28;20033;-72
2023/01/26 09:38:51;;;;;;;62.20;24.20;;;0.10;99.90;;;-1.75;100.00;101473.59;5051124;28;20098;-73
2023/01/26 09:42:15;;;;;;;70.00;23.90;;;0.10;99.90;;;-1.70;100.00;101470.59;5052989;28;20048;-74
2023/01/26 09:45:12;;;;;;;67.28;24.45;;;0.10;99.90;;;-1.58;100.00;101476.84;5056928;28;20082;-75
2023/01/26 09:48:21;;;;;;;68.40;24.67;;;0.20;99.90;;;-1.62;100.00;101458.31;5053312;28;20492;-75
2023/01/26 09:51:11;;;;;;;65.13;23.88;;;0.30;99.90;;;-1.52;100.00;101477.19;5053132;28;20029;-75
2023/01/26 09:53:51;;;;;;;70.55;23.88;;;0.40;99.90;;;-1.58;100.00;101458.09;5055222;28;20036;-74
2023/01/26 09:56:23;;;;;;;69.53;24.95;;;0.30;99.90;;;-1.53;100.00;101464.78;5058723;28;20049;-74
2023/01/26 09:58:58;;;;;;;66.80;22.80;;;0.30;99.90;;;-1.48;100.00;101465.28;5053860;28;20056;-74
2023/01/26 10:01:37;;;;;;;63.97;23.38;;;0.40;99.90;;;-1.44;100.00;101460.56;5054084;28;20061;-74
2023/01/26 10:04:31;;;;;;;63.38;23.73;;;0.40;99.90;;;-1.40;100.00;101467.38;5070559;28;20197;-75
2023/01/26 10:07:00;;;;;;;65.53;23.33;;;0.40;99.90;;;-1.39;100.00;101447.66;5052993;28;20037;-75
2023/01/26 10:09:51;;;;;;;60.65;22.45;;;0.50;99.90;;;-1.32;100.00;101467.66;5053893;28;20120;-75
2023/01/26 10:12:34;;;;;;;68.07;23.63;;;0.50;99.90;;;-1.35;100.00;101469.72;5060009;28;20123;-75
2023/01/26 10:15:33;;;;;;;62.47;23.02;;;0.50;99.90;;;-1.28;100.00;101473.59;5052071;28;20488;-76
2023/01/26 10:18:10;;;;;;;60.78;22.15;;;0.50;99.90;;;-1.28;100.00;101470.09;5055987;28;20033;-73
2023/01/26 10:20:46;;;;;;;62.42;22.23;;;0.60;99.90;;;-1.22;100.00;101469.59;5059527;28;20048;-72
2023/01/26 10:23:28;;;;;;;63.83;23.83;;;0.60;99.90;;;-1.26;100.00;101474.34;5052915;28;20067;-73
2023/01/26 10:26:11;;;;;;;54.50;21.30;;;0.60;99.90;;;-1.21;100.00;101463.28;5051433;28;20055;-75
2023/01/26 10:28:40;;;;;;;60.78;22.48;;;0.60;99.90;;;-1.23;100.00;101468.75;5068554;28;20430;-74
2023/01/26 10:31:32;;;;;;;56.85;20.55;;;0.70;99.90;;;-1.22;100.00;101453.53;5052034;28;20045;-74
2023/01/26 10:34:08;;;;;;;47.63;18.08;;;0.70;99.90;;;-1.43;100.00;101454.22;5057619;28;20045;-74
2023/01/26 10:36:33;;;;;;;51.90;19.55;;;0.60;99.90;;;-1.58;100.00;101450.06;5052693;28;20036;-74
2023/01/26 10:39:09;;;;;;;49.25;19.70;;;0.40;99.90;;;-148.53;100.00;63986.66;5059093;28;20036;-75
2023/01/26 10:41:35;;;;;;;54.53;19.83;;;0.50;99.90;;;-1.28;100.00;101448.66;5068110;28;20547;-74
2023/01/26 10:44:24;;;;;;;50.20;19.20;;;0.60;99.90;;;-1.33;100.00;101449.88;5065461;28;20048;-74
2023/01/26 10:47:14;;;;;;;49.28;19.73;;;0.60;99.90;;;-1.31;100.00;101442.59;5052812;28;20044;-74
2023/01/26 10:49:41;;;;;;;48.85;19.23;;;0.60;99.90;;;-1.22;100.00;101432.94;5058963;28;20044;-75
2023/01/26 10:52:23;;;;;;;49.38;20.17;;;0.70;99.90;;;-1.19;100.00;101426.53;5066014;28;20052;-76
2023/01/26 10:55:19;;;;;;;50.75;20.20;;;0.70;99.90;;;-1.07;100.00;101425.53;5060527;28;20029;-76
2023/01/26 10:57:45;;;;;;;53.15;18.83;;;0.80;99.90;;;-1.01;100.00;101434.91;5058925;28;20032;-75
2023/01/26 11:00:28;;;;;;;52.42;19.50;;;0.80;99.90;;;-0.97;100.00;101428.34;5052446;28;20041;-77